Time;durP1;ratioP1;P1;durP2;ratioP2;P2;SDS_P1;SDS_P2;PMS_P1;PMS_P2;Temp;Humidity;BMP_temperature;BMP_pressure;BME280_temperature;BME280_humidity;BME280_pressure;Samples;Min_cycle;Max_cycle;Signal;HPM_P1;HPM_P2
2022/10/03 00:02:16;;;;;;;1.33;0.90;;;15.60;99.90;;;;;;5119289;27;21035;-73
2022/10/03 00:04:58;;;;;;;1.23;1.13;;;15.50;99.90;;;;;;5046476;27;20431;-72
2022/10/03 00:07:51;;;;;;;1.40;1.10;;;15.50;99.90;;;;;;5137085;27;20419;-73
2022/10/03 00:10:42;;;;;;;3.03;0.73;;;15.50;99.90;;;;;;5118984;27;20458;-73
2022/10/03 00:13:33;;;;;;;0.80;0.80;;;15.50;99.90;;;;;;5118931;27;20435;-74
2022/10/03 00:16:32;;;;;;;1.00;0.80;;;15.50;99.90;;;;;;5137193;27;20495;-74
2022/10/03 00:19:17;;;;;;;0.87;0.83;;;15.50;99.90;;;;;;5118877;27;20473;-74
2022/10/03 00:22:01;;;;;;;0.73;0.70;;;15.40;99.90;;;;;;5137221;27;20419;-74
2022/10/03 00:24:44;;;;;;;0.70;0.67;;;15.40;99.90;;;;;;5137151;27;20440;-74
2022/10/03 00:27:24;;;;;;;0.70;0.63;;;15.40;99.90;;;;;;5137178;27;20404;-74
2022/10/03 00:29:59;;;;;;;1.10;1.00;;;15.40;99.90;;;;;;5136936;27;20535;-73
2022/10/03 00:32:33;;;;;;;1.10;0.73;;;15.40;99.90;;;;;;5137144;27;20402;-74
2022/10/03 00:35:19;;;;;;;0.80;0.80;;;15.40;99.90;;;;;;5136910;27;20426;-74
2022/10/03 00:38:00;;;;;;;0.97;0.70;;;15.40;99.90;;;;;;5085227;27;20931;-72
2022/10/03 00:40:47;;;;;;;1.00;0.83;;;15.40;99.90;;;;;;5118388;27;20463;-73
2022/10/03 00:43:33;;;;;;;1.73;0.93;;;15.40;99.90;;;;;;5114854;28;20476;-74
2022/10/03 00:46:43;;;;;;;1.10;0.90;;;15.50;99.90;;;;;;5116222;28;20468;-74
2022/10/03 00:49:34;;;;;;;0.70;0.70;;;15.50;99.90;;;;;;5116579;28;20469;-73
2022/10/03 00:52:38;;;;;;;1.10;1.00;;;15.50;99.90;;;;;;5106015;28;20407;-73
2022/10/03 00:55:09;;;;;;;0.93;0.73;;;15.50;99.90;;;;;;5116072;28;21013;-73
2022/10/03 00:57:52;;;;;;;2.93;1.00;;;15.50;99.90;;;;;;5116133;28;20481;-73
2022/10/03 01:00:20;;;;;;;1.27;0.87;;;15.50;99.90;;;;;;5116006;28;20535;-72
2022/10/03 01:03:06;;;;;;;1.07;1.00;;;15.50;99.90;;;;;;5114552;28;20430;-73
2022/10/03 01:05:59;;;;;;;1.50;0.87;;;15.50;99.90;;;;;;5114538;28;20959;-73
2022/10/03 01:08:42;;;;;;;1.47;0.90;;;15.50;99.90;;;;;;5114648;28;20464;-73
2022/10/03 01:11:32;;;;;;;1.23;1.00;;;15.50;99.90;;;;;;5115714;28;20424;-74
2022/10/03 01:14:19;;;;;;;1.87;1.27;;;15.50;99.90;;;;;;5116148;28;20795;-74
2022/10/03 01:17:18;;;;;;;1.17;1.10;;;15.50;99.90;;;;;;5115777;28;20408;-74
2022/10/03 01:20:02;;;;;;;1.60;1.43;;;15.50;99.90;;;;;;5113563;28;20516;-73
2022/10/03 01:22:58;;;;;;;1.17;1.07;;;15.50;99.90;;;;;;5115659;28;20420;-75
2022/10/03 01:25:26;;;;;;;1.43;1.30;;;15.50;99.90;;;;;;5115414;28;20440;-73
2022/10/03 01:30:54;;;;;;;2.30;1.20;;;15.40;99.90;;;;;;5115314;28;20776;-73
2022/10/03 01:33:33;;;;;;;2.10;1.30;;;15.40;99.90;;;;;;5115346;28;20505;-72
2022/10/03 01:36:13;;;;;;;3.37;3.10;;;15.40;99.90;;;;;;5115198;28;20428;-74
2022/10/03 01:38:52;;;;;;;1.47;1.10;;;15.40;99.90;;;;;;5115752;28;20412;-73
2022/10/03 01:41:32;;;;;;;1.20;0.90;;;15.40;99.90;;;;;;5115139;28;20529;-72
2022/10/03 01:44:16;;;;;;;1.30;1.20;;;15.30;99.90;;;;;;5127467;27;20444;-74
2022/10/03 01:46:53;;;;;;;1.30;1.10;;;15.30;99.90;;;;;;5135659;27;20932;-72
2022/10/03 01:50:20;;;;;;;1.17;1.07;;;15.30;99.90;;;;;;5135903;27;20565;-73
2022/10/03 01:53:06;;;;;;;1.60;1.50;;;15.30;99.90;;;;;;5090039;27;20935;-73
2022/10/03 01:55:43;;;;;;;2.27;1.20;;;15.20;99.90;;;;;;5135398;27;20430;-74
2022/10/03 01:58:25;;;;;;;1.30;1.20;;;15.20;99.90;;;;;;5135594;27;20415;-74
2022/10/03 02:01:07;;;;;;;1.53;1.33;;;15.20;99.90;;;;;;5135248;27;20907;-74
2022/10/03 02:03:55;;;;;;;1.87;1.23;;;15.20;99.90;;;;;;5135791;27;20403;-74
2022/10/03 02:06:45;;;;;;;1.43;1.23;;;15.20;99.90;;;;;;5135109;27;20863;-74
2022/10/03 02:09:16;;;;;;;1.80;1.30;;;15.20;99.90;;;;;;5135091;27;20466;-73
2022/10/03 02:12:00;;;;;;;1.50;1.30;;;15.10;99.90;;;;;;5135228;27;20404;-73
2022/10/03 02:14:50;;;;;;;1.83;1.40;;;15.10;99.90;;;;;;5135256;27;20395;-73
2022/10/03 02:17:41;;;;;;;1.43;1.07;;;15.10;99.90;;;;;;5135137;27;20391;-74
2022/10/03 02:20:29;;;;;;;2.07;1.60;;;15.10;99.90;;;;;;5135010;27;20427;-73
2022/10/03 02:22:57;;;;;;;2.60;1.30;;;15.10;99.90;;;;;;5116723;27;20443;-72
2022/10/03 02:25:39;;;;;;;2.07;1.63;;;15.10;99.90;;;;;;5116459;27;20424;-74
2022/10/03 02:28:39;;;;;;;1.40;1.20;;;15.10;99.90;;;;;;5116541;28;20490;-75
2022/10/03 02:31:24;;;;;;;1.10;1.00;;;15.10;99.90;;;;;;5134668;27;20923;-73
2022/10/03 02:34:20;;;;;;;2.77;1.33;;;15.10;99.90;;;;;;5135320;27;20415;-73
2022/10/03 02:37:24;;;;;;;2.23;2.03;;;15.00;99.90;;;;;;5134895;27;20410;-73
2022/10/03 02:40:27;;;;;;;1.87;1.40;;;15.00;99.90;;;;;;5134116;27;20475;-74
2022/10/03 02:43:29;;;;;;;2.13;1.33;;;15.00;99.90;;;;;;5116215;28;20478;-75
2022/10/03 02:46:14;;;;;;;2.43;1.57;;;15.00;99.90;;;;;;5116210;28;20488;-75
2022/10/03 02:49:17;;;;;;;2.40;1.70;;;15.00;99.90;;;;;;5135030;28;20466;-73
2022/10/03 02:51:54;;;;;;;2.80;1.70;;;14.90;99.90;;;;;;5134695;28;20426;-75
2022/10/03 02:54:35;;;;;;;3.97;2.03;;;14.90;99.90;;;;;;5116387;28;20431;-72
2022/10/03 02:57:19;;;;;;;2.73;1.80;;;14.90;99.90;;;;;;5134574;28;20391;-72
2022/10/03 02:59:53;;;;;;;2.73;1.80;;;14.80;99.90;;;;;;5134740;28;20990;-74
2022/10/03 03:02:53;;;;;;;2.33;1.90;;;14.80;99.90;;;;;;5134618;28;20411;-74
2022/10/03 03:05:38;;;;;;;2.37;2.10;;;14.80;99.90;;;;;;5134663;28;20509;-74
2022/10/03 03:08:34;;;;;;;3.40;1.83;;;14.70;99.90;;;;;;5134647;28;20477;-72
2022/10/03 03:11:37;;;;;;;3.03;2.50;;;14.70;99.90;;;;;;5115905;28;20443;-73
2022/10/03 03:14:18;;;;;;;6.23;3.20;;;14.70;99.90;;;;;;5134764;28;20517;-75
2022/10/03 03:17:05;;;;;;;3.70;2.73;;;14.70;99.90;;;;;;5134528;28;20433;-74
2022/10/03 03:19:37;;;;;;;3.73;3.07;;;14.70;99.90;;;;;;5134432;28;20441;-74
2022/10/03 03:22:28;;;;;;;4.00;2.97;;;14.70;99.90;;;;;;5134211;28;20434;-75
2022/10/03 03:25:06;;;;;;;5.50;2.30;;;14.70;99.90;;;;;;5134229;28;20486;-74
2022/10/03 03:28:00;;;;;;;3.10;2.80;;;14.70;99.90;;;;;;5134448;28;20493;-73
2022/10/03 03:30:43;;;;;;;3.23;2.70;;;14.70;99.90;;;;;;5071398;28;20558;-73
2022/10/03 03:33:37;;;;;;;3.27;2.60;;;14.60;99.90;;;;;;5134446;28;20450;-73
2022/10/03 03:36:44;;;;;;;3.13;2.70;;;14.60;99.90;;;;;;5134200;28;20431;-75
2022/10/03 03:39:18;;;;;;;4.20;2.57;;;14.60;99.90;;;;;;5031063;28;20923;-73
2022/10/03 03:41:49;;;;;;;3.27;2.20;;;14.60;99.90;;;;;;5124394;27;20914;-72
2022/10/03 03:44:42;;;;;;;5.43;2.90;;;14.60;99.90;;;;;;5137943;27;20592;-72
2022/10/03 03:47:11;;;;;;;4.10;2.23;;;14.60;99.90;;;;;;5119451;27;20455;-74
2022/10/03 03:50:01;;;;;;;4.47;2.40;;;14.50;99.90;;;;;;5119296;27;20466;-74
2022/10/03 03:52:30;;;;;;;4.57;2.87;;;14.50;99.90;;;;;;5137965;27;20404;-74
2022/10/03 03:55:06;;;;;;;3.90;3.10;;;14.50;99.90;;;;;;5137739;27;20423;-75
2022/10/03 03:57:52;;;;;;;3.40;2.53;;;14.40;99.90;;;;;;5119432;27;20477;-72
2022/10/03 04:00:35;;;;;;;3.23;2.70;;;14.50;99.90;;;;;;5137754;27;20423;-73
2022/10/03 04:03:17;;;;;;;5.03;3.40;;;14.40;99.90;;;;;;5119080;27;20455;-72
2022/10/03 04:05:43;;;;;;;3.47;2.80;;;14.40;99.90;;;;;;5119283;27;20813;-73
2022/10/03 04:08:32;;;;;;;6.30;3.80;;;14.40;99.90;;;;;;5137675;27;20451;-73
2022/10/03 04:11:31;;;;;;;3.37;2.90;;;14.40;99.90;;;;;;5118928;27;20195;-74
2022/10/03 04:14:22;;;;;;;3.80;3.20;;;14.40;99.90;;;;;;5137749;27;20426;-73
2022/10/03 04:20:22;;;;;;;5.83;3.27;;;14.40;99.90;;;;;;5136981;27;20438;-72
2022/10/03 04:22:50;;;;;;;7.03;2.70;;;14.30;99.90;;;;;;5080464;27;20426;-73
2022/10/03 04:25:53;;;;;;;4.27;3.77;;;14.30;99.90;;;;;;5118476;27;20483;-72
2022/10/03 04:28:37;;;;;;;4.40;3.70;;;14.30;99.90;;;;;;5097308;27;20531;-73
2022/10/03 04:31:13;;;;;;;5.33;3.33;;;14.30;99.90;;;;;;5137113;27;20434;-74
2022/10/03 04:33:45;;;;;;;6.47;5.90;;;14.30;99.90;;;;;;5137524;27;20411;-74
2022/10/03 04:36:25;;;;;;;6.13;3.50;;;14.30;99.90;;;;;;5118532;27;21006;-72
2022/10/03 04:39:22;;;;;;;4.70;3.87;;;14.30;99.90;;;;;;5118772;27;20487;-72
2022/10/03 04:42:07;;;;;;;6.90;4.03;;;14.30;99.90;;;;;;5080417;27;20919;-72
2022/10/03 04:44:42;;;;;;;3.63;3.33;;;14.30;99.90;;;;;;5136533;27;20463;-72
2022/10/03 04:47:29;;;;;;;4.47;3.37;;;14.30;99.90;;;;;;5136609;27;20403;-74
2022/10/03 04:50:09;;;;;;;3.63;3.33;;;14.30;99.90;;;;;;5118166;27;20505;-74
2022/10/03 04:53:09;;;;;;;3.47;3.10;;;14.40;99.90;;;;;;5136795;27;20812;-74
2022/10/03 04:55:40;;;;;;;4.80;2.97;;;14.30;99.90;;;;;;5111210;27;20466;-73
2022/10/03 04:58:31;;;;;;;4.53;3.30;;;14.30;99.90;;;;;;5116153;28;20762;-74
2022/10/03 05:01:00;;;;;;;5.83;3.50;;;14.30;99.90;;;;;;5135102;27;20805;-74
2022/10/03 05:03:36;;;;;;;3.60;3.27;;;14.40;99.90;;;;;;5120164;27;20748;-72
2022/10/03 05:06:25;;;;;;;3.50;2.77;;;14.40;99.90;;;;;;5114142;28;20419;-73
2022/10/03 05:08:58;;;;;;;3.70;2.87;;;14.30;99.90;;;;;;5115734;28;20479;-74
2022/10/03 05:11:53;;;;;;;2.47;2.27;;;14.40;99.90;;;;;;5115456;28;20416;-72
2022/10/03 05:14:37;;;;;;;4.27;3.20;;;14.30;99.90;;;;;;5116263;28;20419;-74
2022/10/03 05:17:28;;;;;;;4.70;2.80;;;14.40;99.90;;;;;;5115471;28;20778;-74
2022/10/03 05:19:59;;;;;;;3.17;2.87;;;14.40;99.90;;;;;;5097126;28;20460;-74
2022/10/03 05:22:50;;;;;;;2.90;2.70;;;14.40;99.90;;;;;;5126369;27;20455;-74
2022/10/03 05:25:47;;;;;;;3.23;2.80;;;14.30;99.90;;;;;;5117550;27;20435;-72
2022/10/03 05:28:25;;;;;;;4.57;3.40;;;14.30;99.90;;;;;;5098382;28;20549;-74
2022/10/03 05:31:25;;;;;;;5.63;3.20;;;14.20;99.90;;;;;;5122655;27;20796;-72
2022/10/03 05:34:29;;;;;;;7.40;3.63;;;14.20;99.90;;;;;;5135094;27;20426;-75
2022/10/03 05:37:14;;;;;;;3.20;2.80;;;14.20;99.90;;;;;;5134033;27;20422;-72
2022/10/03 05:39:42;;;;;;;10.33;3.20;;;14.10;99.90;;;;;;5135667;27;20435;-72
2022/10/03 05:42:45;;;;;;;4.40;3.47;;;14.10;99.90;;;;;;5135165;27;20422;-72
2022/10/03 05:45:59;;;;;;;6.47;3.93;;;14.10;99.90;;;;;;5128623;27;20467;-73
2022/10/03 05:48:32;;;;;;;6.53;4.00;;;14.10;99.90;;;;;;5026303;28;20485;-74
2022/10/03 05:51:14;;;;;;;4.40;3.90;;;14.10;99.90;;;;;;5107734;28;20503;-74
2022/10/03 05:54:11;;;;;;;5.23;3.80;;;14.10;99.90;;;;;;5117002;27;20917;-74
2022/10/03 05:57:13;;;;;;;5.30;4.10;;;14.10;99.90;;;;;;5116984;27;20527;-71
2022/10/03 06:00:00;;;;;;;5.70;4.10;;;14.10;99.90;;;;;;5114271;27;20444;-73
2022/10/03 06:02:32;;;;;;;7.50;3.60;;;14.10;99.90;;;;;;5127783;27;20952;-73
2022/10/03 06:05:06;;;;;;;5.27;3.40;;;14.10;99.90;;;;;;5133339;27;20526;-72
2022/10/03 06:08:02;;;;;;;5.53;3.60;;;14.10;99.90;;;;;;5133872;27;20463;-73
2022/10/03 06:10:43;;;;;;;4.60;3.83;;;14.20;99.90;;;;;;5113393;27;20518;-73
2022/10/03 06:13:29;;;;;;;4.80;3.30;;;14.20;99.90;;;;;;5128719;27;20485;-73
2022/10/03 06:16:44;;;;;;;5.57;3.97;;;14.30;99.90;;;;;;5130637;27;20432;-71
2022/10/03 06:19:27;;;;;;;5.07;3.80;;;14.30;99.90;;;;;;5127645;27;20777;-72
2022/10/03 06:22:18;;;;;;;7.83;4.07;;;14.30;99.90;;;;;;5101244;27;20434;-71
2022/10/03 06:25:05;;;;;;;7.90;4.13;;;14.30;99.90;;;;;;5103554;27;20450;-74
2022/10/03 06:27:57;;;;;;;5.60;3.80;;;14.40;99.90;;;;;;5106794;28;20458;-71
2022/10/03 06:30:51;;;;;;;4.10;3.43;;;14.40;99.90;;;;;;5129853;27;20438;-71
2022/10/03 06:33:48;;;;;;;5.13;3.33;;;14.40;99.90;;;;;;5111311;27;20438;-74
2022/10/03 06:36:23;;;;;;;4.93;3.60;;;14.50;99.90;;;;;;5110349;28;20444;-73
2022/10/03 06:38:51;;;;;;;5.80;3.80;;;14.60;99.90;;;;;;5112488;28;20438;-73
2022/10/03 06:41:47;;;;;;;4.27;3.87;;;14.60;99.90;;;;;;5113905;28;20436;-72
2022/10/03 06:44:59;;;;;;;4.60;3.60;;;14.70;99.90;;;;;;5114498;28;20528;-73
2022/10/03 06:47:57;;;;;;;9.30;5.37;;;14.70;99.90;;;;;;5112146;28;20931;-71
2022/10/03 06:50:38;;;;;;;6.03;4.53;;;14.80;99.90;;;;;;5056731;28;20471;-71
2022/10/03 06:53:28;;;;;;;5.27;4.27;;;14.90;99.90;;;;;;5128094;27;20416;-71
2022/10/03 06:56:18;;;;;;;4.93;4.43;;;14.90;99.90;;;;;;5120202;28;20449;-71
2022/10/03 06:59:40;;;;;;;4.60;4.17;;;15.00;99.90;;;;;;5112867;28;20856;-74
2022/10/03 07:02:42;;;;;;;6.70;4.07;;;15.10;99.90;;;;;;5031791;28;20427;-73
2022/10/03 07:05:53;;;;;;;4.87;4.37;;;15.10;99.90;;;;;;5015237;28;20524;-72
2022/10/03 07:09:01;;;;;;;6.90;4.10;;;15.20;99.90;;;;;;5112102;28;20555;-73
2022/10/03 07:11:29;;;;;;;6.40;4.60;;;15.30;99.90;;;;;;5111704;28;20531;-74
2022/10/03 07:14:18;;;;;;;4.77;4.23;;;15.40;99.90;;;;;;5132211;28;20415;-71
2022/10/03 07:16:53;;;;;;;4.37;3.33;;;15.50;99.90;;;;;;5093802;28;20420;-73
2022/10/03 07:19:37;;;;;;;9.67;3.90;;;15.50;99.90;;;;;;5115699;27;20434;-73
2022/10/03 07:22:40;;;;;;;7.10;4.50;;;15.60;99.90;;;;;;5104876;27;20813;-71
2022/10/03 07:25:32;;;;;;;5.10;4.10;;;15.60;99.90;;;;;;5115639;27;20708;-71
2022/10/03 07:28:26;;;;;;;5.10;3.47;;;15.70;99.90;;;;;;5070234;28;20477;-74
2022/10/03 07:31:01;;;;;;;5.67;4.03;;;15.70;99.90;;;;;;5117203;27;20458;-71
2022/10/03 07:33:48;;;;;;;6.17;3.73;;;15.90;99.90;;;;;;5137744;27;20410;-71
2022/10/03 07:40:04;;;;;;;4.27;3.97;;;16.10;99.90;;;;;;5135280;27;20491;-73
2022/10/03 07:43:18;;;;;;;6.50;3.60;;;16.30;99.90;;;;;;5114508;27;20793;-71
2022/10/03 07:45:59;;;;;;;5.03;3.63;;;16.40;99.90;;;;;;5118156;27;20872;-73
2022/10/03 07:48:44;;;;;;;9.10;3.60;;;16.50;99.90;;;;;;5119799;27;20477;-72
2022/10/03 07:51:24;;;;;;;6.33;3.50;;;16.60;99.90;;;;;;5125752;27;20439;-74
2022/10/03 07:54:19;;;;;;;3.40;2.93;;;16.80;99.90;;;;;;5130187;27;20438;-71
2022/10/03 07:57:29;;;;;;;4.70;3.30;;;17.00;99.90;;;;;;5127835;27;20431;-71
2022/10/03 08:00:16;;;;;;;3.83;3.40;;;17.30;99.90;;;;;;5028745;28;20560;-73
2022/10/03 08:03:21;;;;;;;2.90;2.60;;;17.90;99.90;;;;;;5038847;28;20794;-71
2022/10/03 08:06:17;;;;;;;2.47;2.27;;;18.60;99.90;;;;;;5121102;27;20469;-72
2022/10/03 08:09:08;;;;;;;4.20;2.70;;;19.70;99.90;;;;;;5111348;27;20471;-71
2022/10/03 08:11:55;;;;;;;3.33;2.27;;;20.70;99.90;;;;;;5130261;27;20992;-74
2022/10/03 08:14:48;;;;;;;6.27;3.20;;;21.70;99.90;;;;;;5127792;27;20423;-71
2022/10/03 08:17:42;;;;;;;4.97;2.50;;;22.70;99.90;;;;;;5122498;27;20497;-72
2022/10/03 08:20:39;;;;;;;3.40;2.90;;;23.40;99.90;;;;;;5104108;27;20455;-73
2022/10/03 08:23:16;;;;;;;3.53;2.20;;;24.10;99.90;;;;;;5114214;27;20446;-74
2022/10/03 08:26:10;;;;;;;2.87;2.30;;;24.60;99.90;;;;;;5128955;27;20797;-72
2022/10/03 08:28:47;;;;;;;2.47;1.90;;;25.20;99.90;;;;;;5120812;27;20459;-72
2022/10/03 08:31:34;;;;;;;2.30;1.90;;;25.60;99.90;;;;;;5126508;27;20449;-72
2022/10/03 08:34:12;;;;;;;3.07;1.67;;;26.10;99.90;;;;;;5111274;27;20523;-74
2022/10/03 08:37:21;;;;;;;6.07;2.00;;;26.40;99.60;;;;;;5128144;27;20513;-72
2022/10/03 08:40:14;;;;;;;4.93;1.80;;;26.20;98.30;;;;;;5097020;27;20973;-72
2022/10/03 08:43:17;;;;;;;12.10;1.93;;;25.80;98.30;;;;;;5125523;27;20948;-71
2022/10/03 08:45:54;;;;;;;2.03;1.37;;;25.20;98.00;;;;;;5098068;27;20449;-73
2022/10/03 08:48:38;;;;;;;8.83;2.60;;;24.60;98.50;;;;;;5099976;28;20468;-72
2022/10/03 08:51:43;;;;;;;5.67;2.50;;;23.90;98.80;;;;;;5118027;27;20901;-71
2022/10/03 08:54:18;;;;;;;4.50;2.00;;;23.00;99.80;;;;;;5104209;27;20431;-72
2022/10/03 08:57:07;;;;;;;3.60;1.93;;;22.30;99.90;;;;;;5123621;27;21184;-72
2022/10/03 09:00:07;;;;;;;4.43;1.93;;;21.80;99.90;;;;;;5120111;27;20915;-72
2022/10/03 09:03:07;;;;;;;5.23;2.40;;;21.30;99.90;;;;;;5123498;27;20431;-74
2022/10/03 09:05:55;;;;;;;3.10;2.30;;;20.90;99.90;;;;;;5121079;27;20483;-74
2022/10/03 09:08:23;;;;;;;7.07;2.80;;;20.60;99.90;;;;;;5119756;27;20467;-74
2022/10/03 09:11:24;;;;;;;7.43;2.60;;;20.30;99.90;;;;;;5098063;28;21116;-72
2022/10/03 09:14:27;;;;;;;2.50;1.83;;;20.00;99.90;;;;;;5072649;27;20484;-71
2022/10/03 09:17:08;;;;;;;4.00;2.10;;;19.70;99.90;;;;;;5118547;27;20478;-74
2022/10/03 09:20:18;;;;;;;6.70;2.23;;;19.60;99.90;;;;;;5120760;27;20435;-71
2022/10/03 09:23:08;;;;;;;4.00;2.33;;;19.70;99.90;;;;;;5110059;27;20463;-73
2022/10/03 09:26:01;;;;;;;9.73;6.67;;;19.70;99.90;;;;;;5117007;27;20454;-74
2022/10/03 09:29:10;;;;;;;6.63;3.20;;;19.70;99.90;;;;;;5096273;28;20473;-71
2022/10/03 09:31:54;;;;;;;2.70;2.50;;;19.60;99.90;;;;;;5108581;27;20436;-71
2022/10/03 09:34:36;;;;;;;2.97;2.17;;;19.40;99.90;;;;;;5135304;27;20444;-71
2022/10/03 09:37:25;;;;;;;4.00;2.20;;;19.30;99.90;;;;;;5115561;27;20476;-72
2022/10/03 09:40:17;;;;;;;2.50;2.00;;;19.20;99.90;;;;;;5133513;27;20429;-74
2022/10/03 09:42:48;;;;;;;2.73;2.00;;;19.50;99.90;;;;;;5129582;27;20502;-72
2022/10/03 09:45:32;;;;;;;10.03;2.93;;;19.80;99.90;;;;;;5125471;27;20441;-72
2022/10/03 09:48:19;;;;;;;4.63;2.30;;;19.90;99.90;;;;;;5114349;27;20430;-72
2022/10/03 09:50:54;;;;;;;3.03;1.97;;;19.70;99.90;;;;;;5130561;27;20457;-72
2022/10/03 09:53:55;;;;;;;2.33;2.13;;;19.60;99.90;;;;;;5129942;27;20500;-72
2022/10/03 09:56:29;;;;;;;2.73;1.87;;;19.40;99.90;;;;;;5112023;27;20862;-74
2022/10/03 09:59:14;;;;;;;2.63;1.90;;;19.20;99.90;;;;;;5107804;27;20500;-74
2022/10/03 10:01:46;;;;;;;4.00;1.77;;;19.00;99.90;;;;;;5103367;27;20423;-72
2022/10/03 10:04:32;;;;;;;3.70;2.00;;;18.90;99.90;;;;;;5131618;27;20428;-74
2022/10/03 10:07:51;;;;;;;5.90;2.10;;;18.80;99.90;;;;;;5110674;27;20464;-74
2022/10/03 10:10:28;;;;;;;3.00;2.37;;;18.80;99.90;;;;;;5110143;27;20865;-71
2022/10/03 10:13:28;;;;;;;2.40;1.90;;;18.80;99.90;;;;;;5128573;27;20963;-71
2022/10/03 10:15:53;;;;;;;3.47;1.93;;;18.70;99.90;;;;;;5099886;27;20461;-71
2022/10/03 10:18:40;;;;;;;3.40;2.33;;;18.70;99.90;;;;;;5112893;27;20947;-73
2022/10/03 10:21:11;;;;;;;3.43;1.90;;;18.70;99.90;;;;;;5104789;27;20289;-74
2022/10/03 10:24:07;;;;;;;2.10;1.90;;;18.60;99.90;;;;;;5122959;27;20429;-72
2022/10/03 10:27:10;;;;;;;4.23;1.93;;;18.60;99.90;;;;;;5114129;27;21003;-71
2022/10/03 10:29:39;;;;;;;5.33;2.00;;;18.60;99.90;;;;;;5127231;27;21073;-73
2022/10/03 10:32:10;;;;;;;3.80;2.10;;;18.60;99.90;;;;;;5132261;27;20426;-72
2022/10/03 10:34:48;;;;;;;3.73;1.70;;;18.60;99.90;;;;;;5120486;27;20472;-74
2022/10/03 10:37:53;;;;;;;2.43;2.00;;;18.60;99.90;;;;;;5108306;27;20449;-71
2022/10/03 10:40:22;;;;;;;3.60;2.00;;;18.60;99.90;;;;;;5124473;27;20874;-74
2022/10/03 10:43:15;;;;;;;5.10;2.70;;;18.40;99.90;;;;;;5108037;27;21000;-73
2022/10/03 10:45:54;;;;;;;4.73;2.00;;;18.30;99.90;;;;;;5098506;28;20492;-71
2022/10/03 10:48:58;;;;;;;3.90;2.00;;;18.20;99.90;;;;;;5103690;28;20474;-72
2022/10/03 10:51:59;;;;;;;2.83;1.80;;;18.20;99.90;;;;;;5123948;27;20462;-72
2022/10/03 10:55:01;;;;;;;5.80;2.33;;;18.20;99.90;;;;;;5013307;28;20841;-71
2022/10/03 10:57:56;;;;;;;3.13;1.60;;;18.30;99.90;;;;;;5086886;27;20515;-74
2022/10/03 11:00:38;;;;;;;4.83;2.57;;;18.30;99.90;;;;;;5114667;27;20447;-71
2022/10/03 11:03:41;;;;;;;2.90;1.80;;;18.40;99.90;;;;;;5107306;27;20444;-71
2022/10/03 11:06:22;;;;;;;5.63;2.50;;;18.40;99.90;;;;;;5132352;27;20455;-72
2022/10/03 11:09:25;;;;;;;2.40;2.20;;;18.40;99.90;;;;;;5133297;27;20466;-73
2022/10/03 11:12:06;;;;;;;4.20;2.10;;;18.40;99.90;;;;;;5115918;27;20431;-72
2022/10/03 11:14:56;;;;;;;3.27;1.83;;;18.50;99.90;;;;;;5133403;27;21301;-71
2022/10/03 11:17:25;;;;;;;2.20;1.90;;;18.50;99.90;;;;;;5125913;27;20431;-72
2022/10/03 11:20:09;;;;;;;4.13;2.27;;;18.50;99.90;;;;;;5133997;27;20448;-73
2022/10/03 11:22:55;;;;;;;2.67;1.90;;;18.60;99.90;;;;;;5127897;27;20415;-71
2022/10/03 11:25:58;;;;;;;2.10;1.90;;;18.60;99.90;;;;;;5125216;27;20453;-73
2022/10/03 11:28:51;;;;;;;3.20;2.67;;;18.60;99.90;;;;;;5123760;27;20886;-71
2022/10/03 11:31:28;;;;;;;3.50;3.03;;;18.60;99.90;;;;;;5104756;27;20963;-71
2022/10/03 11:34:37;;;;;;;3.47;2.00;;;18.60;99.90;;;;;;5125140;27;20504;-72
2022/10/03 11:37:15;;;;;;;3.90;2.00;;;18.50;99.90;;;;;;5124687;27;20432;-71
2022/10/03 11:39:44;;;;;;;3.43;2.03;;;18.40;99.90;;;;;;5098185;27;20434;-72
2022/10/03 11:42:31;;;;;;;2.30;2.10;;;18.40;99.90;;;;;;5104938;27;20810;-74
2022/10/03 11:45:04;;;;;;;4.50;2.10;;;18.40;99.90;;;;;;5125692;27;20479;-73
2022/10/03 11:47:32;;;;;;;2.43;2.20;;;18.40;99.90;;;;;;5124596;27;20419;-73
2022/10/03 11:50:14;;;;;;;6.47;2.10;;;18.40;99.90;;;;;;5124719;27;20477;-71
2022/10/03 11:52:53;;;;;;;5.57;2.43;;;18.30;99.90;;;;;;5128619;27;20430;-72
2022/10/03 11:55:34;;;;;;;4.17;2.33;;;18.30;99.90;;;;;;5123972;27;20459;-75
2022/10/03 11:58:19;;;;;;;2.67;2.00;;;18.30;99.90;;;;;;5109244;27;20813;-74
2022/10/03 12:00:51;;;;;;;4.87;1.87;;;18.30;99.90;;;;;;5107064;27;20448;-72
2022/10/03 12:03:38;;;;;;;2.60;1.77;;;18.30;99.90;;;;;;5114463;27;20441;-72
2022/10/03 12:09:10;;;;;;;1.83;1.57;;;18.40;99.90;;;;;;5121397;27;20504;-75
2022/10/03 12:12:02;;;;;;;3.23;1.70;;;18.50;99.90;;;;;;5100419;27;20423;-72
2022/10/03 12:14:33;;;;;;;1.90;1.60;;;18.50;99.90;;;;;;5114425;27;21181;-75
2022/10/03 12:17:15;;;;;;;2.40;1.60;;;18.60;99.90;;;;;;5120112;27;20499;-72
2022/10/03 12:20:03;;;;;;;2.60;1.40;;;18.60;99.90;;;;;;5125517;27;20543;-75
2022/10/03 12:22:38;;;;;;;7.23;1.70;;;18.60;99.90;;;;;;5102361;27;20470;-73
2022/10/03 12:25:18;;;;;;;1.23;1.13;;;18.60;99.90;;;;;;5118269;27;20441;-72
2022/10/03 12:28:03;;;;;;;2.10;1.33;;;18.60;99.90;;;;;;5102923;27;20461;-74
2022/10/03 12:31:07;;;;;;;2.27;1.27;;;18.60;99.90;;;;;;5118309;27;20450;-75
2022/10/03 12:33:56;;;;;;;2.10;1.20;;;18.50;99.90;;;;;;5122978;27;20441;-74
2022/10/03 12:36:37;;;;;;;4.20;1.60;;;18.50;99.90;;;;;;5121279;27;20448;-72
2022/10/03 12:39:27;;;;;;;1.40;1.30;;;18.50;99.90;;;;;;5117759;27;20506;-72
2022/10/03 12:42:08;;;;;;;1.53;1.43;;;18.50;99.90;;;;;;5103947;27;21120;-75
2022/10/03 12:45:02;;;;;;;1.43;1.33;;;18.50;99.90;;;;;;5102846;27;20481;-75
2022/10/03 12:47:55;;;;;;;2.60;1.77;;;18.50;99.90;;;;;;5098920;28;20432;-72
2022/10/03 12:50:30;;;;;;;2.30;1.60;;;18.50;99.90;;;;;;5095330;28;20481;-72
2022/10/03 12:53:16;;;;;;;2.50;1.93;;;18.40;99.90;;;;;;5121902;27;20491;-72
2022/10/03 12:56:07;;;;;;;3.03;1.73;;;18.40;99.90;;;;;;5100572;28;21160;-75
2022/10/03 12:59:02;;;;;;;4.83;1.60;;;18.30;99.90;;;;;;5067932;27;20970;-75
2022/10/03 13:01:49;;;;;;;1.67;1.27;;;18.30;99.90;;;;;;5097987;27;20453;-73
2022/10/03 13:04:30;;;;;;;2.37;1.60;;;18.40;99.90;;;;;;5107998;27;20429;-74
2022/10/03 13:07:35;;;;;;;1.97;1.50;;;18.40;99.90;;;;;;5119977;27;20903;-72
2022/10/03 13:10:40;;;;;;;1.83;1.73;;;18.40;99.90;;;;;;5106444;27;20504;-71
2022/10/03 13:13:24;;;;;;;1.60;1.43;;;18.50;99.90;;;;;;5094585;28;20467;-71
2022/10/03 13:16:09;;;;;;;4.60;2.00;;;18.60;99.90;;;;;;5113610;28;20546;-73
2022/10/03 13:18:50;;;;;;;3.10;1.23;;;18.60;99.90;;;;;;5109090;27;20472;-73
2022/10/03 13:21:18;;;;;;;2.70;1.20;;;18.70;99.90;;;;;;5116298;27;20445;-74
2022/10/03 13:23:48;;;;;;;2.70;1.50;;;18.70;99.90;;;;;;5130974;27;20837;-72
2022/10/03 13:26:43;;;;;;;3.10;1.90;;;18.70;99.90;;;;;;5124185;27;21035;-74
2022/10/03 13:29:24;;;;;;;1.23;1.13;;;18.80;99.90;;;;;;5110132;27;20468;-72
2022/10/03 13:32:15;;;;;;;7.47;1.50;;;18.80;99.90;;;;;;5112915;27;20926;-72
2022/10/03 13:35:57;;;;;;;3.67;1.40;;;18.80;99.90;;;;;;5102558;27;20541;-70
2022/10/03 13:38:07;;;;;;;4.90;1.23;;;18.70;99.90;;;;;;5125124;27;20426;-71
2022/10/03 13:40:40;;;;;;;4.00;0.97;;;18.70;99.90;;;;;;5128513;27;20461;-71
2022/10/03 13:43:12;;;;;;;4.97;1.40;;;18.70;99.90;;;;;;5108285;27;20827;-71
2022/10/03 13:45:47;;;;;;;3.73;1.33;;;18.70;99.90;;;;;;5108792;27;20455;-71
2022/10/03 13:48:19;;;;;;;3.53;1.00;;;18.70;99.90;;;;;;5130273;27;20429;-71
2022/10/03 13:50:47;;;;;;;3.37;1.00;;;18.70;99.90;;;;;;5113520;27;20535;-72
2022/10/03 13:53:32;;;;;;;7.40;1.50;;;18.70;99.90;;;;;;5107881;27;20430;-71
2022/10/03 13:56:23;;;;;;;4.23;1.47;;;18.80;99.90;;;;;;5109029;27;20506;-70
2022/10/03 13:59:11;;;;;;;2.40;1.27;;;18.80;99.90;;;;;;5112584;27;20457;-71
2022/10/03 14:01:59;;;;;;;1.90;1.57;;;18.80;99.90;;;;;;5129063;27;20421;-72
2022/10/03 14:04:47;;;;;;;1.90;1.50;;;18.70;99.90;;;;;;5117738;27;20436;-74
2022/10/03 14:07:37;;;;;;;3.07;1.37;;;18.70;99.90;;;;;;5130137;27;20443;-74
2022/10/03 14:10:28;;;;;;;4.30;1.90;;;18.60;99.90;;;;;;5104133;28;20466;-74
2022/10/03 14:13:00;;;;;;;4.50;2.07;;;18.50;99.90;;;;;;5108175;27;20437;-76
2022/10/03 14:15:39;;;;;;;2.40;1.40;;;18.40;99.90;;;;;;5108866;27;21027;-74
2022/10/03 14:18:50;;;;;;;1.60;1.50;;;18.40;99.90;;;;;;5117476;27;20425;-75
2022/10/03 14:21:45;;;;;;;4.83;1.43;;;18.30;99.90;;;;;;5039067;28;20571;-74
2022/10/03 14:24:24;;;;;;;3.97;1.63;;;18.30;99.90;;;;;;5125318;27;20974;-73
2022/10/03 14:27:23;;;;;;;6.30;1.70;;;18.30;99.90;;;;;;5126635;27;20413;-75
2022/10/03 14:29:57;;;;;;;4.30;1.93;;;18.20;99.90;;;;;;5125139;27;20487;-76
2022/10/03 14:32:23;;;;;;;2.10;1.90;;;18.20;99.90;;;;;;5102635;27;20435;-73
2022/10/03 14:35:12;;;;;;;4.63;2.23;;;18.10;99.90;;;;;;5125021;27;20460;-74
2022/10/03 14:38:10;;;;;;;3.33;1.40;;;18.10;99.90;;;;;;5119837;27;20575;-74
2022/10/03 14:40:48;;;;;;;1.77;1.23;;;18.10;99.90;;;;;;5121027;27;20458;-74